createdAt,value
2018-07-24T00:00:17.142Z,22.56
2018-07-24T00:02:44.985Z,22.75
2018-07-24T00:05:12.838Z,22.58
2018-07-24T00:07:40.685Z,22.62
2018-07-24T00:10:08.563Z,22.53
2018-07-24T00:12:36.418Z,22.67
2018-07-24T00:15:05.442Z,22.77
2018-07-24T00:17:33.326Z,22.68
2018-07-24T00:20:01.146Z,22.52
2018-07-24T00:22:29.074Z,22.39
2018-07-24T00:24:56.894Z,22.58
2018-07-24T00:27:24.752Z,22.66
2018-07-24T00:29:52.566Z,22.40
2018-07-24T00:32:20.389Z,22.42
2018-07-24T00:34:48.224Z,22.52
2018-07-24T00:37:16.101Z,22.64
2018-07-24T00:39:43.993Z,22.60
2018-07-24T00:42:11.876Z,22.66
2018-07-24T00:44:39.734Z,22.77
2018-07-24T00:47:07.565Z,22.78
2018-07-24T00:49:35.416Z,22.73
2018-07-24T00:52:03.302Z,22.73
2018-07-24T00:54:31.159Z,22.68
2018-07-24T00:56:58.984Z,22.47
2018-07-24T00:59:26.825Z,22.51
2018-07-24T01:01:54.697Z,22.40
2018-07-24T01:04:22.561Z,22.63
2018-07-24T01:06:50.418Z,22.54
2018-07-24T01:09:18.248Z,22.94
2018-07-24T01:11:46.373Z,23.03
2018-07-24T01:14:14.200Z,22.69
2018-07-24T01:16:42.066Z,22.61
2018-07-24T01:19:09.921Z,22.73
2018-07-24T01:21:37.793Z,22.64
2018-07-24T01:24:05.646Z,22.90
2018-07-24T01:26:33.484Z,22.82
2018-07-24T01:29:01.399Z,23.05
2018-07-24T01:31:29.210Z,22.76
2018-07-24T01:33:57.027Z,22.70
2018-07-24T01:36:24.869Z,22.67
2018-07-24T01:38:52.707Z,22.67
2018-07-24T01:41:20.594Z,22.89
2018-07-24T01:43:48.450Z,22.82
2018-07-24T01:46:16.334Z,22.86
2018-07-24T01:48:44.453Z,22.69
2018-07-24T01:51:12.304Z,22.74
2018-07-24T01:53:40.169Z,22.63
2018-07-24T01:56:08.071Z,22.53
2018-07-24T01:58:35.870Z,22.84
2018-07-24T02:01:03.790Z,22.81
2018-07-24T02:03:32.850Z,22.77
2018-07-24T02:06:01.265Z,22.68
2018-07-24T02:08:29.094Z,22.71
2018-07-24T02:10:56.925Z,22.73
2018-07-24T02:13:24.738Z,22.80
2018-07-24T02:15:52.573Z,22.93
2018-07-24T02:18:20.462Z,23.01
2018-07-24T02:20:48.337Z,23.15
2018-07-24T02:23:16.197Z,22.91
2018-07-24T02:25:44.016Z,22.89
2018-07-24T02:28:11.842Z,23.05
2018-07-24T02:30:39.721Z,22.67
2018-07-24T02:33:07.583Z,22.84
2018-07-24T02:35:35.430Z,22.84
2018-07-24T02:38:03.261Z,22.94
2018-07-24T02:40:31.129Z,22.85
2018-07-24T02:42:58.945Z,22.96
2018-07-24T02:45:26.786Z,22.67
2018-07-24T02:47:54.685Z,22.79
2018-07-24T02:50:22.542Z,22.83
2018-07-24T02:52:50.378Z,22.89
2018-07-24T02:55:18.211Z,22.84
2018-07-24T02:57:46.082Z,22.76
2018-07-24T03:00:13.934Z,22.95
2018-07-24T03:02:41.770Z,22.93
2018-07-24T03:05:09.621Z,22.85
2018-07-24T03:07:37.547Z,22.82
2018-07-24T03:10:05.572Z,22.81
2018-07-24T03:12:33.670Z,22.76
2018-07-24T03:15:01.540Z,22.82
2018-07-24T03:17:29.445Z,22.88
2018-07-24T03:19:57.302Z,23.00
2018-07-24T03:22:25.134Z,23.08
2018-07-24T03:24:53.020Z,23.12
2018-07-24T03:27:20.878Z,22.78
2018-07-24T03:29:48.810Z,22.98
2018-07-24T03:32:16.651Z,22.75
2018-07-24T03:34:44.502Z,22.97
2018-07-24T03:37:12.423Z,23.15
2018-07-24T03:39:40.275Z,23.33
2018-07-24T03:42:08.484Z,23.51
2018-07-24T03:44:36.359Z,23.60
2018-07-24T03:47:04.283Z,23.91
2018-07-24T03:49:32.219Z,23.39
2018-07-24T03:52:00.079Z,23.95
2018-07-24T03:54:27.906Z,24.31
2018-07-24T03:56:55.754Z,24.51
2018-07-24T03:59:23.604Z,24.43
2018-07-24T04:01:51.466Z,24.79
2018-07-24T04:04:19.325Z,24.91
2018-07-24T04:06:47.208Z,24.98
2018-07-24T04:09:15.054Z,24.70
2018-07-24T04:11:42.882Z,24.95
2018-07-24T04:14:11.044Z,25.08
2018-07-24T04:16:38.906Z,25.02
2018-07-24T04:19:06.846Z,25.52
2018-07-24T04:21:34.705Z,25.34
2018-07-24T04:24:02.525Z,25.50
2018-07-24T04:26:30.489Z,25.65
2018-07-24T04:28:58.515Z,25.43
2018-07-24T04:31:26.513Z,24.45
2018-07-24T04:33:54.337Z,24.76
2018-07-24T04:36:22.183Z,24.67
2018-07-24T04:38:50.079Z,24.53
2018-07-24T04:41:18.284Z,25.07
2018-07-24T04:43:46.123Z,25.56
2018-07-24T04:46:13.972Z,25.94
2018-07-24T04:48:42.254Z,26.29
2018-07-24T04:51:10.196Z,25.98
2018-07-24T04:53:38.067Z,26.08
2018-07-24T04:56:06.014Z,26.62
2018-07-24T04:58:33.918Z,26.19
2018-07-24T05:01:01.750Z,25.87
2018-07-24T05:03:29.638Z,25.96
2018-07-24T05:05:57.787Z,26.39
2018-07-24T05:08:25.679Z,27.36
2018-07-24T05:10:53.518Z,27.17
2018-07-24T05:13:21.369Z,27.80
2018-07-24T05:15:49.267Z,29.18
2018-07-24T05:18:17.113Z,29.71
2018-07-24T05:20:44.955Z,30.54
2018-07-24T05:23:12.819Z,29.74
2018-07-24T05:25:40.671Z,27.96
2018-07-24T05:28:08.634Z,26.93
2018-07-24T05:30:36.477Z,26.24
2018-07-24T05:33:04.344Z,26.53
2018-07-24T05:35:32.288Z,25.86
2018-07-24T05:38:00.146Z,25.28
2018-07-24T05:40:28.046Z,26.02
2018-07-24T05:42:56.287Z,26.33
2018-07-24T05:45:24.139Z,25.87
2018-07-24T05:47:52.130Z,26.03
2018-07-24T05:50:20.365Z,26.27
2018-07-24T05:52:48.321Z,26.19
2018-07-24T05:55:16.251Z,26.33
2018-07-24T05:57:44.453Z,25.82
2018-07-24T06:00:12.385Z,25.34
2018-07-24T06:02:40.324Z,24.63
2018-07-24T06:05:08.236Z,24.81
2018-07-24T06:07:36.200Z,25.24
2018-07-24T06:10:04.175Z,25.07
2018-07-24T06:12:32.039Z,25.60
2018-07-24T06:15:00.100Z,25.83
2018-07-24T06:17:28.268Z,26.15
2018-07-24T06:19:56.274Z,26.25
2018-07-24T06:22:24.538Z,25.35
2018-07-24T06:24:52.472Z,25.52
2018-07-24T06:27:20.306Z,25.46
2018-07-24T06:29:48.398Z,25.90
2018-07-24T06:32:16.607Z,26.12
2018-07-24T06:34:44.570Z,26.65
2018-07-24T06:37:12.482Z,26.39
2018-07-24T06:39:40.353Z,26.29
2018-07-24T06:42:08.473Z,26.32
2018-07-24T06:44:36.378Z,26.01
2018-07-24T06:47:04.271Z,26.24
2018-07-24T06:49:32.133Z,25.52
2018-07-24T06:52:00.103Z,25.74
2018-07-24T06:54:27.894Z,25.74
2018-07-24T06:56:55.751Z,26.05
2018-07-24T06:59:23.684Z,26.48
2018-07-24T07:01:51.592Z,26.21
2018-07-24T07:04:19.444Z,26.13
2018-07-24T07:06:47.318Z,26.34
2018-07-24T07:09:15.174Z,25.93
2018-07-24T07:11:43.084Z,26.44
2018-07-24T07:14:10.991Z,26.94
2018-07-24T07:16:39.759Z,26.52
2018-07-24T07:19:07.646Z,26.18
2018-07-24T07:21:35.511Z,26.19
2018-07-24T07:24:03.683Z,25.75
2018-07-24T07:26:31.567Z,26.19
2018-07-24T07:28:59.492Z,26.37
2018-07-24T07:31:27.343Z,25.77
2018-07-24T07:33:55.213Z,26.28
2018-07-24T07:36:23.138Z,25.99
2018-07-24T07:38:51.014Z,25.55
2018-07-24T07:41:18.857Z,25.85
2018-07-24T07:43:46.786Z,26.05
2018-07-24T07:46:14.669Z,25.92
2018-07-24T07:48:42.554Z,25.81
2018-07-24T07:51:10.426Z,25.72
2018-07-24T07:53:38.299Z,25.86
2018-07-24T07:56:06.241Z,26.40
2018-07-24T07:58:34.161Z,26.66
2018-07-24T08:01:02.054Z,26.61
2018-07-24T08:03:30.049Z,26.64
2018-07-24T08:05:57.954Z,26.34
2018-07-24T08:08:25.814Z,26.49
2018-07-24T08:10:53.699Z,26.51
2018-07-24T08:13:21.983Z,26.96
2018-07-24T08:15:50.188Z,27.18
2018-07-24T08:18:21.373Z,27.94
2018-07-24T08:20:56.410Z,28.11
2018-07-24T08:23:24.334Z,28.70
2018-07-24T08:25:52.470Z,28.15
2018-07-24T08:28:20.377Z,28.12
2018-07-24T08:30:48.298Z,28.34
2018-07-24T08:33:16.267Z,28.29
2018-07-24T08:35:44.269Z,29.31
2018-07-24T08:38:12.312Z,30.05
2018-07-24T08:40:40.242Z,29.86
2018-07-24T08:43:08.244Z,28.49
2018-07-24T08:45:36.330Z,27.70
2018-07-24T08:48:04.385Z,27.27
2018-07-24T08:50:32.339Z,27.05
2018-07-24T08:53:00.486Z,27.99
2018-07-24T08:55:28.440Z,27.88
2018-07-24T08:57:56.282Z,28.67
2018-07-24T09:00:24.256Z,29.09
2018-07-24T09:02:52.145Z,29.21
2018-07-24T09:05:20.031Z,29.10
2018-07-24T09:07:47.869Z,29.20
2018-07-24T09:10:15.848Z,29.77
2018-07-24T09:12:44.009Z,30.58
2018-07-24T09:15:11.878Z,30.60
2018-07-24T09:17:39.730Z,30.21
2018-07-24T09:20:07.714Z,29.17
2018-07-24T09:22:35.654Z,29.38
2018-07-24T09:25:03.834Z,29.70
2018-07-24T09:27:32.562Z,30.50
2018-07-24T09:30:00.845Z,30.93
2018-07-24T09:32:28.778Z,30.63
2018-07-24T09:34:56.670Z,30.45
2018-07-24T09:37:24.578Z,29.92
2018-07-24T09:39:52.416Z,29.75
2018-07-24T09:42:20.563Z,30.35
2018-07-24T09:44:48.435Z,29.54
2018-07-24T09:47:16.433Z,29.28
2018-07-24T09:49:44.973Z,28.83
2018-07-24T09:52:13.127Z,29.11
2018-07-24T09:54:41.061Z,30.14
2018-07-24T09:57:08.933Z,30.95
2018-07-24T09:59:37.314Z,31.75
2018-07-24T10:02:05.214Z,31.39
2018-07-24T10:07:12.178Z,31.05
2018-07-24T10:09:40.344Z,30.86
2018-07-24T10:12:08.467Z,30.69
2018-07-24T10:14:36.366Z,30.89
2018-07-24T10:17:04.271Z,30.72
2018-07-24T10:19:32.151Z,31.81
2018-07-24T10:22:00.157Z,31.92
2018-07-24T10:24:28.066Z,32.34
2018-07-24T10:26:55.936Z,32.80
2018-07-24T10:29:23.827Z,31.81
2018-07-24T10:31:51.744Z,31.82
2018-07-24T10:34:19.774Z,32.20
2018-07-24T10:36:47.680Z,32.44
2018-07-24T10:39:16.661Z,32.86
2018-07-24T10:41:44.569Z,32.27
2018-07-24T10:44:12.494Z,32.86
2018-07-24T10:46:40.404Z,33.08
2018-07-24T10:49:09.744Z,33.13
2018-07-24T10:51:37.694Z,32.99
2018-07-24T10:54:05.718Z,30.97
2018-07-24T10:56:33.720Z,31.81
2018-07-24T10:59:01.786Z,31.97
2018-07-24T11:01:29.640Z,32.11
2018-07-24T11:03:57.501Z,31.68
2018-07-24T11:06:25.771Z,32.20
2018-07-24T11:08:54.870Z,31.69
2018-07-24T11:11:23.807Z,31.88
2018-07-24T11:13:51.740Z,32.53
2018-07-24T11:16:20.018Z,32.08
2018-07-24T11:18:47.883Z,31.21
2018-07-24T11:21:15.774Z,31.10
2018-07-24T11:23:43.702Z,32.19
2018-07-24T11:26:11.550Z,33.03
2018-07-24T11:28:39.478Z,32.20
2018-07-24T11:31:07.374Z,30.80
2018-07-24T11:33:35.417Z,32.58
2018-07-24T11:36:03.362Z,31.81
2018-07-24T11:38:31.311Z,30.22
2018-07-24T11:40:59.462Z,30.12
2018-07-24T11:43:27.776Z,28.87
2018-07-24T11:45:55.664Z,28.13
2018-07-24T11:48:23.539Z,27.99
2018-07-24T11:50:51.410Z,28.31
2018-07-24T11:53:19.229Z,28.60
2018-07-24T11:55:47.049Z,28.90
2018-07-24T11:58:14.890Z,29.47
2018-07-24T12:00:42.779Z,29.96
2018-07-24T12:03:10.661Z,30.11
2018-07-24T12:05:38.544Z,30.78
2018-07-24T12:08:06.382Z,30.55
2018-07-24T12:13:30.666Z,32.09
2018-07-24T12:15:58.542Z,30.81
2018-07-24T12:18:27.357Z,31.09
2018-07-24T12:20:55.272Z,30.58
2018-07-24T12:23:23.165Z,30.08
2018-07-24T12:25:51.169Z,29.67
2018-07-24T12:28:19.066Z,30.73
2018-07-24T12:30:47.020Z,31.10
2018-07-24T12:33:14.966Z,31.44
2018-07-24T12:35:43.274Z,31.46
2018-07-24T12:38:11.190Z,32.05
2018-07-24T12:40:39.104Z,32.59
2018-07-24T12:43:07.252Z,33.98
2018-07-24T12:45:35.154Z,33.63
2018-07-24T12:48:03.374Z,31.98
2018-07-24T12:50:31.317Z,32.55
2018-07-24T12:52:59.149Z,32.93
2018-07-24T12:55:27.234Z,33.30
2018-07-24T12:57:55.142Z,32.15
2018-07-24T13:00:23.002Z,33.22
2018-07-24T13:02:50.837Z,31.79
2018-07-24T13:05:18.686Z,31.72
2018-07-24T13:07:46.578Z,31.53
2018-07-24T13:10:14.542Z,30.57
2018-07-24T13:12:42.486Z,30.84
2018-07-24T13:15:10.311Z,31.54
2018-07-24T13:17:38.182Z,31.49
2018-07-24T13:20:06.251Z,31.04
2018-07-24T13:22:34.149Z,30.24
2018-07-24T13:25:02.153Z,30.83
2018-07-24T13:27:30.101Z,31.21
2018-07-24T13:29:57.985Z,31.19
2018-07-24T13:32:26.321Z,30.87
2018-07-24T13:34:54.281Z,31.35
2018-07-24T13:37:22.163Z,31.81
2018-07-24T13:39:50.023Z,31.70
2018-07-24T13:42:17.948Z,31.14
2018-07-24T13:44:46.250Z,30.90
2018-07-24T13:47:14.213Z,30.63
2018-07-24T13:49:42.157Z,30.66
2018-07-24T13:52:10.191Z,30.74
2018-07-24T13:54:38.053Z,30.86
2018-07-24T13:57:05.967Z,31.51
2018-07-24T13:59:33.936Z,31.74
2018-07-24T14:02:01.839Z,32.25
2018-07-24T14:04:29.885Z,32.85
2018-07-24T14:06:57.774Z,33.53
2018-07-24T14:09:25.686Z,33.79
2018-07-24T14:11:53.661Z,32.84
2018-07-24T14:14:21.558Z,32.08
2018-07-24T14:16:49.458Z,32.54
2018-07-24T14:19:17.380Z,31.46
2018-07-24T14:21:45.369Z,32.19
2018-07-24T14:24:14.362Z,33.04
2018-07-24T14:26:42.742Z,32.59
2018-07-24T14:29:10.637Z,33.18
2018-07-24T14:31:38.541Z,33.41
2018-07-24T14:34:06.483Z,33.44
2018-07-24T14:36:34.427Z,32.87
2018-07-24T14:39:02.401Z,31.57
2018-07-24T14:41:30.338Z,31.11
2018-07-24T14:43:58.181Z,32.40
2018-07-24T14:46:26.412Z,31.73
2018-07-24T14:48:54.278Z,31.48
2018-07-24T14:51:22.448Z,31.84
2018-07-24T14:53:50.313Z,31.93
2018-07-24T14:56:18.182Z,31.84
2018-07-24T14:58:46.396Z,31.91
2018-07-24T15:01:14.281Z,30.97
2018-07-24T15:03:42.170Z,30.60
2018-07-24T15:06:10.010Z,30.70
2018-07-24T15:08:37.856Z,30.81
2018-07-24T15:11:06.075Z,30.45
2018-07-24T15:13:33.928Z,30.17
2018-07-24T15:16:01.873Z,30.07
2018-07-24T15:18:29.764Z,30.22
2018-07-24T15:20:57.674Z,30.20
2018-07-24T15:23:25.523Z,30.53
2018-07-24T15:25:53.417Z,31.08
2018-07-24T15:28:21.294Z,31.46
2018-07-24T15:30:49.146Z,31.74
2018-07-24T15:33:17.103Z,31.49
2018-07-24T15:35:44.969Z,31.90
2018-07-24T15:38:13.110Z,31.99
2018-07-24T15:40:41.032Z,32.31
2018-07-24T15:43:09.190Z,32.24
2018-07-24T15:45:37.538Z,32.12
2018-07-24T15:48:05.434Z,32.14
2018-07-24T15:50:33.314Z,31.33
2018-07-24T15:53:01.249Z,31.35
2018-07-24T15:55:29.150Z,30.58
2018-07-24T15:57:57.095Z,31.07
2018-07-24T16:00:24.991Z,31.00
2018-07-24T16:02:53.882Z,30.83
2018-07-24T16:05:22.141Z,30.54
2018-07-24T16:07:50.005Z,30.48
2018-07-24T16:10:17.897Z,30.63
2018-07-24T16:12:45.802Z,30.13
2018-07-24T16:15:13.702Z,29.65
2018-07-24T16:17:41.600Z,29.21
2018-07-24T16:20:09.529Z,29.13
2018-07-24T16:22:37.481Z,29.34
2018-07-24T16:25:05.698Z,28.92
2018-07-24T16:27:33.629Z,28.95
2018-07-24T16:30:01.601Z,28.31
2018-07-24T16:32:29.530Z,27.66
2018-07-24T16:34:57.403Z,27.07
2018-07-24T16:37:25.281Z,27.09
2018-07-24T16:39:53.453Z,26.93
2018-07-24T16:42:21.369Z,26.20
2018-07-24T16:44:49.363Z,24.87
2018-07-24T16:47:17.277Z,23.57
2018-07-24T16:49:45.189Z,23.45
2018-07-24T16:52:13.173Z,23.09
2018-07-24T16:54:41.048Z,23.47
2018-07-24T16:57:08.970Z,23.21
2018-07-24T16:59:36.891Z,23.33
2018-07-24T17:02:04.773Z,23.42
2018-07-24T17:04:32.633Z,23.29
2018-07-24T17:07:00.492Z,23.50
2018-07-24T17:09:28.440Z,23.76
2018-07-24T17:11:56.353Z,23.56
2018-07-24T17:14:24.249Z,23.46
2018-07-24T17:16:52.130Z,23.35
2018-07-24T17:19:19.977Z,23.56
2018-07-24T17:21:47.868Z,23.74
2018-07-24T17:24:15.668Z,23.57
2018-07-24T17:26:43.559Z,23.22
2018-07-24T17:29:11.441Z,23.28
2018-07-24T17:31:39.304Z,23.22
2018-07-24T17:34:07.277Z,23.29
2018-07-24T17:36:35.157Z,23.17
2018-07-24T17:39:03.408Z,23.12
2018-07-24T17:41:31.329Z,23.27
2018-07-24T17:43:59.240Z,23.20
2018-07-24T17:46:27.096Z,23.44
2018-07-24T17:48:55.019Z,23.23
2018-07-24T17:51:22.868Z,23.28
2018-07-24T17:53:50.883Z,23.28
2018-07-24T17:56:18.720Z,23.23
2018-07-24T17:58:46.601Z,23.30
2018-07-24T18:01:14.509Z,23.30
2018-07-24T18:03:42.376Z,23.48
2018-07-24T18:06:10.288Z,23.44
2018-07-24T18:08:38.408Z,23.48
2018-07-24T18:11:06.315Z,23.26
2018-07-24T18:13:34.209Z,23.02
2018-07-24T18:16:02.126Z,23.20
2018-07-24T18:18:30.061Z,23.07
2018-07-24T18:20:57.947Z,23.09
2018-07-24T18:23:25.878Z,23.34
2018-07-24T18:25:53.785Z,23.29
2018-07-24T18:28:21.600Z,23.34
2018-07-24T18:30:49.489Z,23.53
2018-07-24T18:33:17.506Z,23.39
2018-07-24T18:35:45.320Z,23.23
2018-07-24T18:38:13.237Z,22.73
2018-07-24T18:40:41.125Z,22.72
2018-07-24T18:43:08.964Z,22.88
2018-07-24T18:45:36.837Z,22.86
2018-07-24T18:48:05.160Z,23.13
2018-07-24T18:50:33.117Z,23.00
2018-07-24T18:53:00.944Z,23.06
2018-07-24T18:55:29.076Z,23.16
2018-07-24T18:57:56.957Z,22.86
2018-07-24T19:00:24.804Z,23.07
2018-07-24T19:02:52.869Z,23.07
2018-07-24T19:05:20.764Z,22.92
2018-07-24T19:07:48.651Z,22.82
2018-07-24T19:10:16.559Z,22.99
2018-07-24T19:12:44.461Z,23.02
2018-07-24T19:15:12.409Z,22.76
2018-07-24T19:17:40.293Z,22.67
2018-07-24T19:20:08.138Z,22.67
2018-07-24T19:22:36.000Z,22.72
2018-07-24T19:25:03.917Z,22.68
2018-07-24T19:27:31.837Z,22.84
2018-07-24T19:29:59.725Z,23.05
2018-07-24T19:32:27.568Z,23.00
2018-07-24T19:34:55.492Z,22.78
2018-07-24T19:37:23.366Z,22.84
2018-07-24T19:39:51.256Z,22.77
2018-07-24T19:42:19.173Z,22.75
2018-07-24T19:44:47.045Z,23.04
2018-07-24T19:47:15.013Z,23.17
2018-07-24T19:49:42.943Z,23.07
2018-07-24T19:52:10.884Z,22.92
2018-07-24T19:54:38.753Z,23.01
2018-07-24T19:57:06.681Z,23.28
2018-07-24T19:59:35.405Z,23.28
2018-07-24T20:02:03.293Z,22.95
2018-07-24T20:04:31.157Z,23.09
2018-07-24T20:06:59.056Z,23.14
2018-07-24T20:09:26.985Z,23.12
2018-07-24T20:11:54.845Z,22.99
2018-07-24T20:14:22.741Z,23.05
2018-07-24T20:16:50.618Z,23.12
2018-07-24T20:19:18.486Z,23.15
2018-07-24T20:21:46.359Z,22.83
2018-07-24T20:24:14.237Z,22.56
2018-07-24T20:26:42.094Z,22.79
2018-07-24T20:29:09.948Z,22.83
2018-07-24T20:31:37.863Z,22.91
2018-07-24T20:34:05.677Z,22.83
2018-07-24T20:36:33.537Z,22.86
2018-07-24T20:39:01.440Z,22.85
2018-07-24T20:41:29.389Z,22.93
2018-07-24T20:43:57.289Z,22.89
2018-07-24T20:46:25.176Z,22.89
2018-07-24T20:48:53.133Z,22.98
2018-07-24T20:51:21.041Z,23.04
2018-07-24T20:53:48.881Z,22.84
2018-07-24T20:56:16.730Z,22.81
2018-07-24T20:58:44.621Z,22.91
2018-07-24T21:01:12.492Z,22.92
2018-07-24T21:03:40.393Z,22.66
2018-07-24T21:06:08.312Z,22.81
2018-07-24T21:08:36.248Z,22.84
2018-07-24T21:11:04.389Z,22.98
2018-07-24T21:13:32.373Z,23.04
2018-07-24T21:16:00.253Z,23.06
2018-07-24T21:18:28.092Z,23.07
2018-07-24T21:20:55.986Z,22.82
2018-07-24T21:23:23.860Z,22.77
2018-07-24T21:25:51.757Z,22.72
2018-07-24T21:28:19.590Z,22.77
2018-07-24T21:30:47.465Z,22.74
2018-07-24T21:33:15.317Z,22.49
2018-07-24T21:35:43.877Z,22.76
2018-07-24T21:38:11.754Z,22.84
2018-07-24T21:40:39.621Z,22.71
2018-07-24T21:43:07.514Z,22.63
2018-07-24T21:45:35.389Z,22.49
2018-07-24T21:48:03.253Z,22.49
2018-07-24T21:50:31.080Z,22.50
2018-07-24T21:52:58.970Z,22.53
2018-07-24T21:55:26.792Z,22.50
2018-07-24T21:57:54.624Z,22.48
2018-07-24T22:00:22.608Z,22.42
2018-07-24T22:02:50.486Z,22.26
2018-07-24T22:05:18.340Z,22.28
2018-07-24T22:07:47.129Z,22.46
2018-07-24T22:10:20.929Z,22.51
2018-07-24T22:12:48.913Z,22.57
2018-07-24T22:15:21.885Z,22.54
2018-07-24T22:20:23.588Z,22.35
2018-07-24T22:22:51.798Z,22.46
2018-07-24T22:25:19.649Z,22.36
2018-07-24T22:27:47.480Z,22.31
2018-07-24T22:30:15.394Z,22.36
2018-07-24T22:32:43.220Z,22.36
2018-07-24T22:35:12.071Z,22.41
2018-07-24T22:37:40.004Z,22.37
2018-07-24T22:40:09.477Z,22.41
2018-07-24T22:42:37.345Z,22.47
2018-07-24T22:45:05.572Z,22.45
2018-07-24T22:47:33.454Z,22.43
2018-07-24T22:50:01.266Z,22.47
2018-07-24T22:52:29.121Z,22.40
2018-07-24T22:54:56.938Z,22.19
2018-07-24T22:57:24.758Z,22.26
2018-07-24T22:59:52.580Z,22.51
2018-07-24T23:02:20.389Z,22.68
2018-07-24T23:04:48.213Z,22.77
2018-07-24T23:07:16.034Z,22.80
2018-07-24T23:09:43.884Z,22.63
2018-07-24T23:12:11.708Z,22.66
2018-07-24T23:14:39.541Z,22.68
2018-07-24T23:17:07.330Z,22.66
2018-07-24T23:19:35.145Z,22.65
2018-07-24T23:22:02.989Z,22.53
2018-07-24T23:24:30.875Z,22.49
2018-07-24T23:26:58.767Z,22.60
2018-07-24T23:29:26.609Z,22.54
2018-07-24T23:31:54.469Z,22.49
2018-07-24T23:34:22.313Z,22.39
2018-07-24T23:36:50.126Z,22.25
2018-07-24T23:39:17.974Z,22.30
2018-07-24T23:41:45.837Z,22.49
2018-07-24T23:44:13.665Z,22.61
2018-07-24T23:46:41.499Z,22.70
2018-07-24T23:49:09.358Z,22.75
2018-07-24T23:51:37.193Z,22.84
2018-07-24T23:54:05.209Z,22.93
2018-07-24T23:56:33.069Z,23.03
2018-07-24T23:59:00.919Z,23.21
